Time;durP1;ratioP1;P1;durP2;ratioP2;P2;SDS_P1;SDS_P2;PMS_P1;PMS_P2;Temp;Humidity;BMP_temperature;BMP_pressure;BME280_temperature;BME280_humidity;BME280_pressure;Samples;Min_cycle;Max_cycle;Signal;HPM_P1;HPM_P2
2022/12/10 00:02:21;;;;;;;18.90;14.50;;;2.60;99.90;;;;;;5038750;28;20232;-76
2022/12/10 00:04:48;;;;;;;14.05;11.80;;;2.60;99.90;;;;;;5041795;28;20565;-76
2022/12/10 00:07:15;;;;;;;17.13;12.05;;;2.50;99.90;;;;;;5045204;28;20724;-77
2022/12/10 00:09:43;;;;;;;15.38;11.57;;;2.60;99.90;;;;;;5045702;28;20301;-77
2022/12/10 00:12:10;;;;;;;19.25;14.55;;;2.60;99.90;;;;;;5016599;28;20592;-77
2022/12/10 00:14:37;;;;;;;17.45;12.88;;;2.60;99.90;;;;;;5020003;28;20237;-77
2022/12/10 00:17:05;;;;;;;19.75;12.15;;;2.60;99.90;;;;;;5014215;28;20541;-80
2022/12/10 00:19:32;;;;;;;20.48;12.77;;;2.60;99.90;;;;;;5016596;28;20597;-78
2022/12/10 00:21:59;;;;;;;17.08;11.95;;;2.60;99.90;;;;;;5026363;28;20291;-78
2022/12/10 00:24:26;;;;;;;17.85;11.93;;;2.60;99.90;;;;;;5016398;28;20688;-76
2022/12/10 00:26:55;;;;;;;18.17;12.23;;;2.60;99.90;;;;;;5024369;28;20229;-77
2022/12/10 00:29:22;;;;;;;15.32;12.05;;;2.60;99.90;;;;;;5019738;28;20699;-75
2022/12/10 00:31:50;;;;;;;21.13;15.57;;;2.60;99.90;;;;;;5015500;28;20257;-75
2022/12/10 00:34:17;;;;;;;17.38;12.43;;;2.50;99.90;;;;;;5028974;28;20237;-75
2022/12/10 00:36:46;;;;;;;17.48;11.30;;;2.50;99.90;;;;;;5015922;28;20230;-77
2022/12/10 00:39:15;;;;;;;15.45;12.23;;;2.50;99.90;;;;;;5016176;28;20225;-77
2022/12/10 00:41:42;;;;;;;17.88;12.98;;;2.50;99.90;;;;;;5025406;28;20321;-77
2022/12/10 00:44:11;;;;;;;16.92;12.90;;;2.50;99.90;;;;;;5029117;28;21399;-77
2022/12/10 00:46:38;;;;;;;19.17;12.43;;;2.50;99.90;;;;;;5026097;28;20226;-77
2022/12/10 00:49:05;;;;;;;20.10;14.20;;;2.40;99.90;;;;;;5015916;28;20245;-76
2022/12/10 00:51:32;;;;;;;18.13;13.73;;;2.50;99.90;;;;;;5016407;28;20234;-76
2022/12/10 00:54:00;;;;;;;18.15;13.00;;;2.40;99.90;;;;;;5017393;28;20221;-77
2022/12/10 00:56:33;;;;;;;17.65;10.82;;;2.40;99.90;;;;;;5015947;28;20275;-78
2022/12/10 00:59:01;;;;;;;18.23;12.80;;;2.40;99.90;;;;;;5015736;28;20426;-78
2022/12/10 01:01:33;;;;;;;21.67;13.40;;;2.40;99.90;;;;;;5029671;28;20217;-77
2022/12/10 01:04:01;;;;;;;14.75;11.65;;;2.40;99.90;;;;;;5027971;28;20222;-77
2022/12/10 01:06:30;;;;;;;16.05;11.10;;;2.40;99.90;;;;;;5018371;28;20229;-76
2022/12/10 01:08:59;;;;;;;16.13;12.80;;;2.40;99.90;;;;;;5027746;28;20225;-78
2022/12/10 01:11:30;;;;;;;14.80;11.38;;;2.40;99.90;;;;;;5017330;28;20269;-79
2022/12/10 01:13:57;;;;;;;18.52;13.30;;;2.40;99.90;;;;;;5023955;28;20257;-79
2022/12/10 01:16:25;;;;;;;14.35;10.98;;;2.40;99.90;;;;;;5021130;28;20245;-79
2022/12/10 01:18:55;;;;;;;18.38;12.70;;;2.40;99.90;;;;;;5015669;28;20587;-79
2022/12/10 01:21:23;;;;;;;16.20;11.75;;;2.40;99.90;;;;;;5028620;28;20331;-76
2022/12/10 01:23:52;;;;;;;15.82;11.93;;;2.50;99.90;;;;;;5015936;28;20240;-78
2022/12/10 01:26:22;;;;;;;16.90;12.85;;;2.40;99.90;;;;;;5016168;28;20261;-79
2022/12/10 01:28:50;;;;;;;17.38;11.95;;;2.40;99.90;;;;;;5020118;28;20340;-79
2022/12/10 01:31:19;;;;;;;15.98;12.30;;;2.30;99.90;;;;;;5019001;28;20218;-76
2022/12/10 01:33:47;;;;;;;14.77;11.23;;;2.40;99.90;;;;;;5026812;28;20304;-76
2022/12/10 01:36:17;;;;;;;14.05;10.95;;;2.40;99.90;;;;;;5018803;28;20313;-78
2022/12/10 01:38:44;;;;;;;16.17;11.50;;;2.40;99.90;;;;;;5024838;28;20304;-76
2022/12/10 01:41:16;;;;;;;15.98;12.02;;;2.30;99.90;;;;;;5021769;28;20222;-76
2022/12/10 01:43:52;;;;;;;15.80;11.10;;;2.40;99.90;;;;;;5028992;28;20275;-79
2022/12/10 01:46:20;;;;;;;18.98;11.73;;;2.30;99.90;;;;;;5021332;28;20229;-76
2022/12/10 01:48:47;;;;;;;17.05;12.30;;;2.30;99.90;;;;;;5018261;28;20253;-76
2022/12/10 01:51:16;;;;;;;13.20;10.40;;;2.20;99.90;;;;;;5015680;28;20233;-78
2022/12/10 01:53:45;;;;;;;15.90;12.55;;;2.20;99.90;;;;;;5016088;28;20567;-78
2022/12/10 01:56:12;;;;;;;16.58;12.30;;;2.20;99.90;;;;;;5016078;28;20237;-76
2022/12/10 01:58:40;;;;;;;15.18;10.82;;;2.20;99.90;;;;;;5015983;28;20305;-78
2022/12/10 02:01:14;;;;;;;14.73;11.05;;;2.20;99.90;;;;;;5019568;28;20261;-77
2022/12/10 02:03:56;;;;;;;15.80;12.20;;;2.10;99.90;;;;;;5016704;28;20262;-77
2022/12/10 02:06:39;;;;;;;16.77;13.38;;;2.20;99.90;;;;;;5016279;28;20234;-75
2022/12/10 02:09:14;;;;;;;19.90;12.20;;;2.20;99.90;;;;;;5020758;28;20222;-77
2022/12/10 02:11:48;;;;;;;14.68;11.27;;;2.10;99.90;;;;;;5018474;28;20241;-78
2022/12/10 02:14:21;;;;;;;16.08;11.43;;;2.10;99.90;;;;;;5024191;28;20351;-78
2022/12/10 02:16:57;;;;;;;16.33;12.88;;;2.10;99.90;;;;;;5027548;28;20313;-77
2022/12/10 02:19:34;;;;;;;20.27;13.15;;;2.10;99.90;;;;;;5030813;28;20249;-78
2022/12/10 02:22:06;;;;;;;14.43;11.00;;;2.10;99.90;;;;;;5021467;28;20234;-78
2022/12/10 02:24:37;;;;;;;15.38;11.05;;;2.00;99.90;;;;;;5037083;28;20232;-76
2022/12/10 02:27:11;;;;;;;15.13;12.57;;;2.00;99.90;;;;;;5029569;28;20221;-78
2022/12/10 02:29:41;;;;;;;18.73;13.65;;;2.10;99.90;;;;;;5040804;28;20709;-78
2022/12/10 02:32:13;;;;;;;16.60;11.32;;;2.10;99.90;;;;;;5043750;28;20299;-76
2022/12/10 02:34:43;;;;;;;13.95;11.40;;;2.10;99.90;;;;;;5050794;28;20616;-77
2022/12/10 02:37:16;;;;;;;15.73;12.30;;;2.00;99.90;;;;;;5050858;28;20309;-74
2022/12/10 02:39:46;;;;;;;16.27;11.52;;;2.10;99.90;;;;;;5049315;28;20273;-75
2022/12/10 02:42:15;;;;;;;16.42;12.80;;;2.10;99.90;;;;;;5049534;28;20225;-76
2022/12/10 02:44:46;;;;;;;18.45;12.95;;;2.10;99.90;;;;;;5047198;28;20233;-75
2022/12/10 02:47:14;;;;;;;18.08;13.30;;;2.10;99.90;;;;;;5036143;28;20230;-76
2022/12/10 02:49:42;;;;;;;17.20;13.38;;;2.10;99.90;;;;;;5047425;28;20236;-76
2022/12/10 02:52:13;;;;;;;16.98;12.18;;;2.10;99.90;;;;;;5045006;28;20226;-79
2022/12/10 02:54:42;;;;;;;18.98;12.90;;;2.10;99.90;;;;;;5026801;28;20249;-76
2022/12/10 02:57:19;;;;;;;19.65;12.57;;;2.10;99.90;;;;;;5027206;28;20222;-76
2022/12/10 02:59:59;;;;;;;20.38;13.13;;;2.10;99.90;;;;;;5050117;28;20217;-76
2022/12/10 03:02:33;;;;;;;17.23;12.57;;;2.10;99.90;;;;;;5038275;28;20221;-76
2022/12/10 03:05:05;;;;;;;18.20;12.60;;;2.10;99.90;;;;;;5041696;28;20259;-76
2022/12/10 03:07:38;;;;;;;19.42;13.10;;;2.10;99.90;;;;;;5047397;28;20229;-76
2022/12/10 03:10:13;;;;;;;19.50;14.10;;;2.00;99.90;;;;;;5016868;28;20308;-76
2022/12/10 03:12:49;;;;;;;21.23;14.05;;;1.90;99.90;;;;;;5027517;28;20364;-76
2022/12/10 03:15:20;;;;;;;19.05;13.85;;;1.90;99.90;;;;;;5022076;28;20575;-75
2022/12/10 03:17:49;;;;;;;18.52;13.65;;;1.90;99.90;;;;;;5016789;28;20225;-76
2022/12/10 03:20:17;;;;;;;18.23;13.32;;;2.00;99.90;;;;;;5028430;28;20226;-76
2022/12/10 03:22:47;;;;;;;17.77;13.98;;;2.00;99.90;;;;;;5034542;28;20233;-76
2022/12/10 03:25:18;;;;;;;21.35;14.40;;;2.00;99.90;;;;;;5016846;28;20257;-75
2022/12/10 03:27:49;;;;;;;18.95;13.25;;;2.00;99.90;;;;;;5016538;28;20232;-75
2022/12/10 03:30:18;;;;;;;18.02;13.32;;;2.00;99.90;;;;;;5027500;28;20226;-76
2022/12/10 03:32:46;;;;;;;19.02;13.63;;;2.10;99.90;;;;;;5017016;28;21897;-77
2022/12/10 03:35:14;;;;;;;21.33;14.93;;;2.10;99.90;;;;;;5031464;28;20229;-76
2022/12/10 03:37:42;;;;;;;15.60;12.60;;;2.10;99.90;;;;;;5032815;28;20294;-77
2022/12/10 03:40:12;;;;;;;19.05;13.70;;;2.10;99.90;;;;;;5024231;28;20244;-78
2022/12/10 03:42:39;;;;;;;16.95;12.60;;;2.10;99.90;;;;;;5019563;28;20611;-78
2022/12/10 03:45:07;;;;;;;18.00;13.65;;;2.20;99.90;;;;;;5029717;28;20246;-78
2022/12/10 03:47:36;;;;;;;17.27;12.68;;;2.10;99.90;;;;;;5029058;28;20285;-78
2022/12/10 03:50:04;;;;;;;21.30;15.05;;;2.10;99.90;;;;;;5028101;28;20248;-77
2022/12/10 03:52:31;;;;;;;17.58;12.98;;;2.10;99.90;;;;;;5048790;28;20221;-78
2022/12/10 03:54:58;;;;;;;19.02;13.60;;;2.10;99.90;;;;;;5049239;28;20238;-78
2022/12/10 03:57:26;;;;;;;18.35;11.30;;;2.10;99.90;;;;;;5050450;28;20853;-76
2022/12/10 03:59:53;;;;;;;16.80;12.35;;;2.10;99.90;;;;;;5046292;28;20321;-78
2022/12/10 04:02:20;;;;;;;21.98;13.65;;;2.10;99.90;;;;;;5045789;28;20264;-78
2022/12/10 04:04:48;;;;;;;23.73;15.15;;;2.10;99.90;;;;;;5045307;28;20252;-77
2022/12/10 04:07:15;;;;;;;19.98;13.70;;;2.10;99.90;;;;;;5044981;28;20252;-77
2022/12/10 04:09:42;;;;;;;16.83;13.18;;;2.10;99.90;;;;;;5064508;28;20296;-79
2022/12/10 04:12:09;;;;;;;20.05;13.75;;;2.10;99.90;;;;;;5070475;28;20225;-78
2022/12/10 04:17:20;;;;;;;17.20;12.85;;;2.10;99.90;;;;;;5071053;28;20299;-77
2022/12/10 04:19:48;;;;;;;17.75;11.55;;;2.20;99.90;;;;;;5068928;28;20236;-77
2022/12/10 04:27:49;;;;;;;17.67;13.82;;;2.20;99.90;;;;;;5057345;28;20212;-77
2022/12/10 04:30:17;;;;;;;23.25;14.93;;;2.30;99.90;;;;;;5056064;28;20543;-77
2022/12/10 04:32:44;;;;;;;15.95;12.52;;;2.30;99.90;;;;;;5056415;28;20314;-77
2022/12/10 04:35:12;;;;;;;17.60;13.70;;;2.30;99.90;;;;;;5056277;28;20236;-77
2022/12/10 04:37:39;;;;;;;17.80;13.70;;;2.40;99.90;;;;;;5056255;28;20790;-77
2022/12/10 04:40:07;;;;;;;20.42;12.48;;;2.40;99.90;;;;;;5055534;28;20304;-79
2022/12/10 04:42:35;;;;;;;17.80;12.68;;;2.40;99.90;;;;;;5056373;28;20249;-79
2022/12/10 04:45:07;;;;;;;15.82;13.05;;;2.40;99.90;;;;;;5055757;28;20228;-79
2022/12/10 04:47:34;;;;;;;14.77;11.05;;;2.50;99.90;;;;;;5056205;28;20546;-77
2022/12/10 04:50:03;;;;;;;19.20;14.15;;;2.50;99.90;;;;;;5055874;28;20320;-77
2022/12/10 04:52:31;;;;;;;19.15;13.35;;;2.50;99.90;;;;;;5056393;28;20221;-77
2022/12/10 04:54:58;;;;;;;16.88;13.25;;;2.60;99.90;;;;;;5056044;28;20220;-79
2022/12/10 04:57:28;;;;;;;20.10;12.73;;;2.50;99.90;;;;;;5056159;28;20251;-79
2022/12/10 04:59:55;;;;;;;17.20;14.65;;;2.60;99.90;;;;;;5055235;28;20260;-79
2022/12/10 05:02:22;;;;;;;17.38;13.07;;;2.50;99.90;;;;;;5056213;28;20690;-79
2022/12/10 05:04:49;;;;;;;16.23;12.25;;;2.60;99.90;;;;;;5056354;28;20270;-79
2022/12/10 05:07:16;;;;;;;15.73;12.13;;;2.60;99.90;;;;;;5055902;28;20221;-78
2022/12/10 05:09:44;;;;;;;17.58;12.65;;;2.60;99.90;;;;;;5053682;28;20331;-78
2022/12/10 05:12:11;;;;;;;18.58;13.02;;;2.60;99.90;;;;;;5054714;28;20389;-79
2022/12/10 05:14:39;;;;;;;15.88;11.75;;;2.60;99.90;;;;;;5054767;28;20308;-76
2022/12/10 05:17:06;;;;;;;14.98;12.70;;;2.60;99.90;;;;;;5055293;28;20231;-79
2022/12/10 05:19:32;;;;;;;16.08;12.65;;;2.60;99.90;;;;;;5055221;28;20331;-79
2022/12/10 05:24:45;;;;;;;15.23;11.80;;;2.70;99.90;;;;;;5054177;28;20228;-79
2022/12/10 05:27:12;;;;;;;17.13;12.05;;;2.60;99.90;;;;;;5054236;28;20621;-79
2022/12/10 05:29:39;;;;;;;15.95;11.80;;;2.70;99.90;;;;;;5055324;28;20688;-79
2022/12/10 05:32:06;;;;;;;19.13;13.32;;;2.70;99.90;;;;;;5055273;28;20282;-78
2022/12/10 05:34:33;;;;;;;14.05;12.15;;;2.70;99.90;;;;;;5055530;28;20237;-78
2022/12/10 05:37:00;;;;;;;14.38;11.13;;;2.70;99.90;;;;;;5058492;28;20296;-78
2022/12/10 05:39:27;;;;;;;20.05;12.20;;;2.70;99.90;;;;;;5055440;28;20303;-78
2022/12/10 05:41:55;;;;;;;12.38;11.00;;;2.70;99.90;;;;;;5054364;28;20233;-77
2022/12/10 05:44:22;;;;;;;16.70;12.93;;;2.70;99.90;;;;;;5053829;28;20304;-76
2022/12/10 05:46:49;;;;;;;15.77;10.80;;;2.80;99.90;;;;;;5053950;28;20296;-76
2022/12/10 05:49:16;;;;;;;16.77;12.10;;;2.80;99.90;;;;;;5053353;28;20640;-76
2022/12/10 05:51:43;;;;;;;14.77;11.32;;;2.80;99.90;;;;;;5053912;28;20255;-75
2022/12/10 05:54:10;;;;;;;13.93;11.93;;;2.80;99.90;;;;;;5044647;28;20286;-76
2022/12/10 05:56:45;;;;;;;13.38;11.02;;;2.80;99.90;;;;;;5054118;28;20307;-76
2022/12/10 05:59:14;;;;;;;13.70;11.70;;;2.80;99.90;;;;;;5053157;28;20286;-76
2022/12/10 06:01:41;;;;;;;13.20;11.02;;;2.80;99.90;;;;;;5053803;28;20236;-76
2022/12/10 06:04:08;;;;;;;14.68;11.00;;;2.80;99.90;;;;;;5053588;28;20221;-77
2022/12/10 06:06:39;;;;;;;12.85;11.38;;;2.80;99.90;;;;;;5053192;28;20224;-78
2022/12/10 06:09:08;;;;;;;12.95;11.63;;;2.80;99.90;;;;;;5052957;28;20705;-78
2022/12/10 06:11:35;;;;;;;16.65;13.15;;;2.90;99.90;;;;;;5053198;28;20225;-77
2022/12/10 06:14:02;;;;;;;14.77;11.93;;;2.80;99.90;;;;;;5053819;28;20311;-76
2022/12/10 06:16:33;;;;;;;13.95;12.18;;;2.80;99.90;;;;;;5053206;28;20310;-77
2022/12/10 06:19:02;;;;;;;13.02;11.63;;;2.80;99.90;;;;;;5053423;28;20225;-78
2022/12/10 06:21:29;;;;;;;13.13;10.30;;;2.90;99.90;;;;;;5052525;28;20220;-78
2022/12/10 06:23:56;;;;;;;12.57;10.77;;;2.90;99.90;;;;;;5053193;28;20323;-78
2022/12/10 06:26:25;;;;;;;11.68;10.48;;;2.80;99.90;;;;;;5052294;28;20320;-76
2022/12/10 06:28:53;;;;;;;14.52;11.25;;;2.80;99.90;;;;;;5053414;28;20252;-77
2022/12/10 06:31:21;;;;;;;12.82;11.45;;;2.80;99.90;;;;;;5044341;28;20309;-77
2022/12/10 06:33:50;;;;;;;13.68;11.65;;;2.90;99.90;;;;;;5054062;28;20237;-78
2022/12/10 06:36:18;;;;;;;13.93;10.55;;;2.90;99.90;;;;;;5053634;28;20259;-76
2022/12/10 06:38:46;;;;;;;12.43;10.43;;;2.90;99.90;;;;;;5053156;28;20258;-78
2022/12/10 06:41:15;;;;;;;13.50;10.77;;;2.90;99.90;;;;;;5053698;28;20749;-77
2022/12/10 06:43:42;;;;;;;14.02;11.20;;;2.90;99.90;;;;;;5053039;28;20278;-79
2022/12/10 06:46:12;;;;;;;13.55;11.25;;;2.80;99.90;;;;;;5053561;28;20324;-77
2022/12/10 06:48:39;;;;;;;12.88;11.57;;;2.80;99.90;;;;;;5052797;28;20229;-76
2022/12/10 06:51:08;;;;;;;15.85;11.88;;;2.70;99.90;;;;;;5053381;28;20220;-77
2022/12/10 06:53:37;;;;;;;13.25;10.77;;;2.80;99.90;;;;;;5052264;28;20278;-77
2022/12/10 06:56:06;;;;;;;12.00;9.35;;;2.80;99.90;;;;;;5053217;28;20307;-78
2022/12/10 06:58:35;;;;;;;12.43;11.05;;;2.80;99.90;;;;;;5052191;28;20267;-79
2022/12/10 07:01:06;;;;;;;13.35;10.02;;;2.80;99.90;;;;;;5053029;28;20232;-77
2022/12/10 07:03:34;;;;;;;14.23;10.38;;;2.70;99.90;;;;;;5052155;28;20225;-76
2022/12/10 07:06:06;;;;;;;10.93;9.75;;;2.80;99.90;;;;;;5057634;28;20456;-77
2022/12/10 07:08:34;;;;;;;14.95;11.65;;;2.70;99.90;;;;;;5053634;28;20670;-76
2022/12/10 07:11:04;;;;;;;12.55;11.25;;;2.80;99.90;;;;;;5053262;28;20225;-77
2022/12/10 07:13:31;;;;;;;15.02;10.30;;;2.70;99.90;;;;;;5053224;28;20263;-77
2022/12/10 07:15:58;;;;;;;12.20;10.90;;;2.70;99.90;;;;;;5053995;28;20319;-76
2022/12/10 07:18:25;;;;;;;13.75;10.63;;;2.70;99.90;;;;;;5055118;28;20216;-77
2022/12/10 07:20:53;;;;;;;11.50;9.98;;;2.70;99.90;;;;;;5052835;28;20240;-78
2022/12/10 07:23:20;;;;;;;14.00;9.85;;;2.70;99.90;;;;;;5053351;28;20224;-77
2022/12/10 07:25:49;;;;;;;10.05;9.05;;;2.70;99.90;;;;;;5053228;28;20220;-78
2022/12/10 07:28:16;;;;;;;13.00;9.77;;;2.70;99.90;;;;;;5052592;28;20243;-79
2022/12/10 07:30:43;;;;;;;11.85;9.73;;;2.70;99.90;;;;;;5051914;28;20236;-79
2022/12/10 07:33:14;;;;;;;12.23;10.27;;;2.70;99.90;;;;;;5052787;28;20224;-79
2022/12/10 07:35:40;;;;;;;12.32;10.15;;;2.70;99.90;;;;;;5052364;28;20220;-77
2022/12/10 07:38:07;;;;;;;10.93;9.57;;;2.80;99.90;;;;;;5052283;28;20800;-77
2022/12/10 07:40:35;;;;;;;12.05;10.80;;;2.70;99.90;;;;;;5051878;28;20232;-77
2022/12/10 07:43:03;;;;;;;12.00;9.90;;;2.80;99.90;;;;;;5052359;28;20221;-77
2022/12/10 07:45:30;;;;;;;11.60;10.40;;;2.80;99.90;;;;;;5051262;28;20224;-79
2022/12/10 07:48:00;;;;;;;11.52;10.07;;;2.80;99.90;;;;;;5052476;28;20224;-79
2022/12/10 07:50:27;;;;;;;11.13;9.80;;;2.70;99.90;;;;;;5053037;28;20221;-79
2022/12/10 07:52:56;;;;;;;9.85;8.85;;;2.70;99.90;;;;;;5056250;28;20248;-79
2022/12/10 07:55:23;;;;;;;12.98;11.45;;;2.80;99.90;;;;;;5056357;28;20667;-77
2022/12/10 07:57:50;;;;;;;12.25;11.00;;;2.80;99.90;;;;;;5054822;28;20225;-77
2022/12/10 08:00:19;;;;;;;12.68;9.90;;;2.70;99.90;;;;;;5056222;28;20291;-78
2022/12/10 08:02:46;;;;;;;11.90;10.65;;;2.80;99.90;;;;;;5055658;28;20697;-79
2022/12/10 08:05:13;;;;;;;12.35;10.07;;;2.80;99.90;;;;;;5056323;28;20224;-79
2022/12/10 08:07:40;;;;;;;10.82;9.75;;;2.80;99.90;;;;;;5055530;28;20387;-77
2022/12/10 08:10:08;;;;;;;11.40;10.18;;;2.70;99.90;;;;;;5055863;28;20220;-77
2022/12/10 08:12:35;;;;;;;12.55;10.73;;;2.70;99.90;;;;;;5055408;28;20307;-77
2022/12/10 08:15:03;;;;;;;11.63;9.73;;;2.80;99.90;;;;;;5056043;28;20224;-77
2022/12/10 08:17:31;;;;;;;12.63;10.77;;;2.80;99.90;;;;;;5056159;28;20663;-79
2022/12/10 08:19:58;;;;;;;10.57;9.30;;;2.80;99.90;;;;;;5056697;28;20674;-79
2022/12/10 08:22:29;;;;;;;12.43;10.88;;;2.80;99.90;;;;;;5056100;28;20251;-79
2022/12/10 08:24:56;;;;;;;15.30;11.60;;;2.80;99.90;;;;;;5055138;28;20301;-79
2022/12/10 08:27:24;;;;;;;12.90;11.43;;;2.80;99.90;;;;;;5056260;28;20228;-77
2022/12/10 08:29:51;;;;;;;14.38;12.20;;;2.80;99.90;;;;;;5055202;28;20686;-79
2022/12/10 08:32:18;;;;;;;12.02;10.75;;;2.80;99.90;;;;;;5055280;28;20282;-79
2022/12/10 08:34:49;;;;;;;12.73;11.35;;;2.80;99.90;;;;;;5045824;28;20229;-79
2022/12/10 08:37:17;;;;;;;15.88;11.95;;;2.80;99.90;;;;;;5068891;28;20221;-77
2022/12/10 08:39:44;;;;;;;14.07;12.68;;;2.80;99.90;;;;;;5054637;28;20724;-76
2022/12/10 08:42:11;;;;;;;12.32;11.13;;;2.70;99.90;;;;;;5055276;28;20225;-77
2022/12/10 08:44:38;;;;;;;13.80;12.38;;;2.80;99.90;;;;;;5055396;28;20233;-77
2022/12/10 08:47:08;;;;;;;13.80;12.13;;;2.70;99.90;;;;;;5055631;28;20670;-77
2022/12/10 08:49:35;;;;;;;13.00;11.68;;;2.80;99.90;;;;;;5054814;28;20286;-76
2022/12/10 08:52:04;;;;;;;12.93;11.57;;;2.70;99.90;;;;;;5054938;28;20253;-77
2022/12/10 08:54:31;;;;;;;13.93;11.80;;;2.80;99.90;;;;;;5055272;28;20228;-77
2022/12/10 08:56:58;;;;;;;12.68;11.05;;;2.80;99.90;;;;;;5054746;28;20247;-76
2022/12/10 08:59:25;;;;;;;13.90;12.07;;;2.80;99.90;;;;;;5054731;28;20260;-77
2022/12/10 09:01:56;;;;;;;11.85;10.55;;;2.80;99.90;;;;;;5054425;28;20332;-77
2022/12/10 09:04:24;;;;;;;14.60;11.85;;;2.80;99.90;;;;;;5054947;28;20240;-77
2022/12/10 09:06:52;;;;;;;13.75;11.50;;;2.80;99.90;;;;;;5055103;28;20231;-77
2022/12/10 09:09:20;;;;;;;12.57;11.10;;;2.90;99.90;;;;;;5057035;28;20247;-77
2022/12/10 09:11:47;;;;;;;12.25;10.95;;;2.90;99.90;;;;;;5057097;28;20599;-77
2022/12/10 09:14:17;;;;;;;11.88;10.73;;;2.80;99.90;;;;;;5056972;28;20229;-75
2022/12/10 09:16:44;;;;;;;14.13;11.20;;;2.80;99.90;;;;;;5055557;28;20260;-77
2022/12/10 09:19:11;;;;;;;12.18;10.27;;;2.90;99.90;;;;;;5056176;28;20225;-76
2022/12/10 09:21:38;;;;;;;13.85;12.48;;;2.90;99.90;;;;;;5056292;28;20224;-76
2022/12/10 09:24:06;;;;;;;12.77;11.13;;;2.90;99.90;;;;;;5055715;28;20240;-76
2022/12/10 09:29:29;;;;;;;14.40;11.70;;;3.00;99.90;;;;;;5056435;28;20225;-78
2022/12/10 09:32:02;;;;;;;12.95;11.68;;;3.00;99.90;;;;;;5058922;28;20224;-78
2022/12/10 09:34:35;;;;;;;15.07;11.68;;;3.00;99.90;;;;;;5056880;28;20233;-77
2022/12/10 09:37:19;;;;;;;13.20;10.90;;;3.00;99.90;;;;;;5055241;28;20220;-77
2022/12/10 09:39:49;;;;;;;12.93;11.10;;;3.00;99.90;;;;;;5053917;28;20677;-77
2022/12/10 09:42:36;;;;;;;16.00;11.40;;;3.10;99.90;;;;;;5055089;28;20290;-76
2022/12/10 09:45:17;;;;;;;12.00;10.45;;;3.00;99.90;;;;;;5057459;28;20217;-77
2022/12/10 09:47:56;;;;;;;13.80;11.45;;;3.10;99.90;;;;;;5063500;28;20255;-78
2022/12/10 09:50:33;;;;;;;13.50;11.80;;;3.10;99.90;;;;;;5055036;28;20233;-78
2022/12/10 09:53:04;;;;;;;14.68;11.05;;;3.00;99.90;;;;;;5056084;28;20224;-76
2022/12/10 09:55:48;;;;;;;;;;;;;;;;;;;;;
2022/12/10 09:58:20;;;;;;;15.05;13.55;;;3.10;99.90;;;;;;5054877;28;20225;-78
2022/12/10 10:00:49;;;;;;;14.52;12.18;;;3.10;99.90;;;;;;5054397;28;20229;-78
2022/12/10 10:03:17;;;;;;;14.15;12.57;;;3.10;99.90;;;;;;5055012;28;20590;-78
2022/12/10 10:05:48;;;;;;;13.75;12.32;;;3.10;99.90;;;;;;5054361;28;20302;-78
2022/12/10 10:08:24;;;;;;;12.70;11.50;;;3.10;99.90;;;;;;5055233;28;20229;-79
2022/12/10 10:10:51;;;;;;;13.05;11.68;;;3.10;99.90;;;;;;5054328;28;20248;-79
2022/12/10 10:13:31;;;;;;;12.43;10.98;;;3.10;99.90;;;;;;5053975;28;20670;-79
2022/12/10 10:16:13;;;;;;;12.68;11.38;;;3.10;99.90;;;;;;5054886;28;20255;-78
2022/12/10 10:18:45;;;;;;;13.30;12.10;;;3.10;99.90;;;;;;5056781;28;20325;-78
2022/12/10 10:21:18;;;;;;;14.90;12.13;;;3.20;99.90;;;;;;5059022;28;20220;-77
2022/12/10 10:23:46;;;;;;;13.45;11.52;;;3.20;99.90;;;;;;5060885;28;20221;-78
2022/12/10 10:26:13;;;;;;;12.63;10.65;;;3.10;99.90;;;;;;5062440;28;20224;-78
2022/12/10 10:28:45;;;;;;;16.20;12.65;;;3.20;99.90;;;;;;5062246;28;20288;-78
2022/12/10 10:31:19;;;;;;;13.48;12.07;;;3.20;99.90;;;;;;5063911;28;20232;-78
2022/12/10 10:33:56;;;;;;;15.25;11.57;;;3.20;99.90;;;;;;5057664;28;20255;-77
2022/12/10 10:36:25;;;;;;;13.73;12.07;;;3.20;99.90;;;;;;5061052;28;20231;-76
2022/12/10 10:38:54;;;;;;;14.18;11.50;;;3.20;99.90;;;;;;5063316;28;20255;-78
2022/12/10 10:41:24;;;;;;;13.57;11.32;;;3.20;99.90;;;;;;5062270;28;20294;-75
2022/12/10 10:44:03;;;;;;;13.48;11.68;;;3.10;99.90;;;;;;5063724;28;20262;-76
2022/12/10 10:46:31;;;;;;;14.93;11.77;;;3.10;99.90;;;;;;5063705;28;20662;-77
2022/12/10 10:49:14;;;;;;;13.25;11.95;;;3.10;99.90;;;;;;5062892;28;21316;-77
2022/12/10 10:51:44;;;;;;;13.45;11.90;;;3.20;99.90;;;;;;5066357;28;20724;-79
2022/12/10 10:54:11;;;;;;;12.43;11.23;;;3.10;99.90;;;;;;5066044;28;20311;-80
2022/12/10 10:56:42;;;;;;;12.93;11.55;;;3.20;99.90;;;;;;5064798;28;20235;-78
2022/12/10 10:59:31;;;;;;;14.55;11.75;;;3.10;99.90;;;;;;5063550;28;20225;-79
2022/12/10 11:02:04;;;;;;;12.88;11.55;;;3.20;99.90;;;;;;5061842;28;20244;-78
2022/12/10 11:04:39;;;;;;;11.75;10.55;;;3.10;99.90;;;;;;5058757;28;20224;-78
2022/12/10 11:07:16;;;;;;;12.98;10.77;;;3.20;99.90;;;;;;5055844;28;20243;-76
2022/12/10 11:09:45;;;;;;;13.88;10.60;;;3.20;99.90;;;;;;5053987;28;20613;-76
2022/12/10 11:12:31;;;;;;;12.52;11.23;;;3.20;99.90;;;;;;5052824;28;20232;-76
2022/12/10 11:15:04;;;;;;;11.25;9.80;;;3.20;99.90;;;;;;5064983;28;20698;-78
2022/12/10 11:17:31;;;;;;;11.88;10.68;;;3.20;99.90;;;;;;5065758;28;20716;-78
2022/12/10 11:20:01;;;;;;;11.95;10.73;;;3.30;99.90;;;;;;5062843;28;20311;-79
2022/12/10 11:22:31;;;;;;;12.30;10.55;;;3.20;99.90;;;;;;5065274;28;20224;-78
2022/12/10 11:24:59;;;;;;;17.27;12.25;;;3.20;99.90;;;;;;5062944;28;20235;-79
2022/12/10 11:28:02;;;;;;;11.82;10.57;;;3.30;99.90;;;;;;5065459;28;20220;-79
2022/12/10 11:30:36;;;;;;;13.38;10.88;;;3.30;99.90;;;;;;5064056;28;20224;-78
2022/12/10 11:33:22;;;;;;;11.95;10.73;;;3.40;99.90;;;;;;5063194;28;20231;-78
2022/12/10 11:36:06;;;;;;;13.05;11.68;;;3.40;99.90;;;;;;5063529;28;20227;-79
2022/12/10 11:38:46;;;;;;;13.60;12.30;;;3.30;99.90;;;;;;5060358;28;20228;-76
2022/12/10 11:41:24;;;;;;;13.45;11.95;;;3.30;99.90;;;;;;5061180;28;20673;-76
2022/12/10 11:44:14;;;;;;;13.45;12.05;;;3.20;99.90;;;;;;5059749;28;20216;-76
2022/12/10 11:47:10;;;;;;;11.95;10.65;;;3.30;99.90;;;;;;5060953;28;20228;-78
2022/12/10 11:49:48;;;;;;;13.48;12.10;;;3.30;99.90;;;;;;5057407;28;20243;-76
2022/12/10 11:52:24;;;;;;;16.05;11.73;;;3.30;99.90;;;;;;5058981;28;20244;-76
2022/12/10 11:55:08;;;;;;;15.77;12.43;;;3.30;99.90;;;;;;5058517;28;20228;-78
2022/12/10 11:57:44;;;;;;;13.32;11.93;;;3.30;99.90;;;;;;5061045;28;20251;-78
2022/12/10 12:00:22;;;;;;;14.82;12.25;;;3.30;99.90;;;;;;5061444;28;20244;-78
2022/12/10 12:03:14;;;;;;;14.13;12.73;;;3.30;99.90;;;;;;5060579;28;20239;-78
2022/12/10 12:06:05;;;;;;;15.60;11.95;;;3.30;99.90;;;;;;5057777;28;20550;-79
2022/12/10 12:08:44;;;;;;;12.55;11.20;;;3.30;99.90;;;;;;5057915;28;20233;-77
2022/12/10 12:11:26;;;;;;;16.02;12.35;;;3.30;99.90;;;;;;5054175;28;20273;-77
2022/12/10 12:14:02;;;;;;;12.27;10.98;;;3.30;99.90;;;;;;5062774;28;20766;-77
2022/12/10 12:16:36;;;;;;;12.27;10.98;;;3.30;99.90;;;;;;5056569;28;20228;-79
2022/12/10 12:19:10;;;;;;;17.77;12.70;;;3.30;99.90;;;;;;5047347;28;20318;-76
2022/12/10 12:21:42;;;;;;;14.45;11.70;;;3.30;99.90;;;;;;5056302;28;20226;-78
2022/12/10 12:24:17;;;;;;;14.30;12.75;;;3.30;99.90;;;;;;5055932;28;20219;-77
2022/12/10 12:26:53;;;;;;;13.68;12.15;;;3.30;99.90;;;;;;5058072;28;20231;-78
2022/12/10 12:29:26;;;;;;;13.60;12.10;;;3.30;99.90;;;;;;5058110;28;20232;-78
2022/12/10 12:32:00;;;;;;;15.02;12.85;;;3.30;99.90;;;;;;5056937;28;20635;-76
2022/12/10 12:34:41;;;;;;;14.93;12.98;;;3.30;99.90;;;;;;5059406;28;20225;-77
2022/12/10 12:37:11;;;;;;;14.25;12.30;;;3.30;99.90;;;;;;5058010;28;20248;-77
2022/12/10 12:39:49;;;;;;;13.77;11.90;;;3.30;99.90;;;;;;5058638;28;20630;-76
2022/12/10 12:42:24;;;;;;;13.48;11.77;;;3.30;99.90;;;;;;5056012;28;20215;-76
2022/12/10 12:45:00;;;;;;;15.32;13.85;;;3.30;99.90;;;;;;5064924;28;20254;-77
2022/12/10 12:47:52;;;;;;;14.10;12.65;;;3.30;99.90;;;;;;5056648;28;20286;-76
2022/12/10 12:50:31;;;;;;;14.80;13.10;;;3.20;99.90;;;;;;5060912;28;20712;-77
2022/12/10 12:53:01;;;;;;;15.85;12.98;;;3.30;99.90;;;;;;5056390;28;20299;-77
2022/12/10 12:55:34;;;;;;;15.20;13.57;;;3.20;99.90;;;;;;5056760;28;20588;-77
2022/12/10 12:58:15;;;;;;;15.00;13.15;;;3.20;99.90;;;;;;5057818;28;20271;-76
2022/12/10 13:00:51;;;;;;;14.50;13.00;;;3.20;99.90;;;;;;5060691;28;20230;-78
2022/12/10 13:03:32;;;;;;;19.13;12.90;;;3.30;99.90;;;;;;5058424;28;20220;-78
2022/12/10 13:09:24;;;;;;;16.63;13.32;;;3.20;99.90;;;;;;5057203;28;20233;-78
2022/12/10 13:12:26;;;;;;;15.32;13.55;;;3.30;99.90;;;;;;5056671;28;20280;-79
2022/12/10 13:15:14;;;;;;;20.00;14.07;;;3.20;99.90;;;;;;5046324;28;20220;-78